North Palm Beach, FL (33408)

8:45 PM EDT on October 24, 2014 (GMT -0400)
Juno Beach, Jupiter, PB Gardens | Change Station
CLOSE
Current Station
Personal Weather Station
Location: Juno Beach, FL
Elevation: 23 ft
Nearby Weather Stations
Active Advisory: Coastal Hazard Statement

Elev 23 ft 26.87 °N, 80.07 °W | Updated 7 seconds ago

Mostly Cloudy
Mostly Cloudy
75.9 °F
Feels Like 77 °F
N
6.7
Wind Variable Wind from North
Gusts 11.5 mph

Today
High -- | Low -- °F
--% Chance of Precip.
Yesterday
High -- | Low -- °F
Precip. -- in
7:24 AM 6:43 PM
New Moon, 1% visible
Pressure 29.85 in
Visibility 10.0 miles
Clouds Scattered Clouds 3000 ft
Mostly Cloudy 4200 ft
Mostly Cloudy 5000 ft
Heat Index 77 °F
Dew Point 67 °F
Humidity 75%
Rainfall 0.00 in
Snow Depth Not available.
UV 0 out of 12
Pollen 2.30 out of 12
Ozone Good
PM2.5 Good
Flu Activity Local Activity
SPECI KPBI 250031Z 02012KT 10SM SCT030 BKN042 BKN050 25/19 A2985 RMK AO2 T02500189

More Conditions Fewer Conditions

Pressure 29.85 in
Visibility 10.0 miles
Clouds Scattered Clouds 3000 ft
Mostly Cloudy 4200 ft
Mostly Cloudy 5000 ft
Heat Index 77 °F
Dew Point 67 °F
Humidity 75%
Rainfall 0.00 in
Snow Depth Not available.
UV 0 out of 12
Pollen 2.30 out of 12
Ozone Good
PM2.5 Good
Flu Activity Local Activity
SPECI KPBI 250031Z 02012KT 10SM SCT030 BKN042 BKN050 25/19 A2985 RMK AO2 T02500189

More Conditions Fewer Conditions

Nowcast | as of 6:12 PM EDT on October 24, 2014

Weather conditions will continue to improve across Southeast Florida, with only a few fast-moving light showers affecting the area this evening. Winds will remain breezy out of the northeast at 15 mph with temperatures in the 70s. Marine conditions will remain rough with seas up to 9 ft in the Gulf Stream.

×

10-Day Weather Forecast

Almanac

Astronomy

Oct. 24, 2014 Rise Set
Actual Time 7:24 AM EDT 6:43 PM EDT
Civil Twilight 7:01 AM EDT 7:07 PM EDT
Nautical Twilight 6:34 AM EDT 7:34 PM EDT
Astronomical Twilight 6:06 AM EDT 8:01 PM EDT
Moon 7:59 AM EDT (10/24) 7:26 PM EDT (10/24)
Length of Visible Light 12h 05m
Length of Day
11h 18m
Tomorrow will be 1m 26s shorter.
New Moon, 1% of the Moon is Illuminated
Today
New Moon
Oct 30
First Quarter
Nov 6
Full
Nov 14
Last Quarter
Nov 22
New

Today's Extremes

State Highs State Lows

Community

WunderPhotos

Upload Photos

1,764,735 photos uploaded!

WunderBlogs® & News

Nearby

Air Quality

  Air Quality AQ Index Pollutant
Yesterday Good
OZONE
Yesterday Good
PM2.5
Current Good
OZONE
Current Good
PM2.5
Friday Good
OZONE
Friday Good
PM2.5
Saturday Good
OZONE
Saturday Good
PM2.5
Sunday Good
OZONE
Sunday Good
PM2.5
Monday Good
OZONE
Monday Good
PM2.5

Snow Depth

Station Depth Elevation
No new snow has been reported.

Earthquake Activity

City Distance Mag. Time & Date
No recent earthquake activity has been reported nearby.
Minimum magnitude displayed is 2.5.

Coastal Water Temperatures

Place Temperature
Lake Worth, FL 79.0 °F
Virginia Key, FL 80.1 °F

Nearby Weather Stations